Time;durP1;ratioP1;P1;durP2;ratioP2;P2;SDS_P1;SDS_P2;PMS_P1;PMS_P2;Temp;Humidity;BMP_temperature;BMP_pressure;BME280_temperature;BME280_humidity;BME280_pressure;Samples;Min_cycle;Max_cycle;Signal;HPM_P1;HPM_P2
2022/04/12 00:00:00;;;;;;;20.42;12.52;;;;;;;10.64;46.57;101193.84;5200960;28;20424;-43
2022/04/12 00:02:34;;;;;;;16.02;11.50;;;;;;;10.61;46.64;101192.31;5210586;28;20405;-43
2022/04/12 00:05:11;;;;;;;16.38;11.70;;;;;;;10.31;46.62;101144.94;5208489;28;20417;-42
2022/04/12 00:07:44;;;;;;;18.33;12.00;;;;;;;10.58;46.64;101179.38;5202243;28;20434;-42
2022/04/12 00:10:17;;;;;;;16.50;11.40;;;;;;;10.57;46.81;101193.56;5195984;28;20623;-42
2022/04/12 00:12:50;;;;;;;17.20;12.43;;;;;;;10.56;46.78;101196.34;5208067;28;20505;-43
2022/04/12 00:15:22;;;;;;;15.85;11.60;;;;;;;10.32;46.88;101146.63;5210881;28;20405;-42
2022/04/12 00:20:47;;;;;;;17.73;12.27;;;;;;;10.52;46.93;101181.75;5190312;28;20399;-43
2022/04/12 00:23:22;;;;;;;17.23;12.95;;;;;;;10.48;46.96;101173.28;5185410;28;20855;-43
2022/04/12 00:25:54;;;;;;;19.35;12.93;;;;;;;10.48;47.13;101181.22;5209314;28;20414;-42
2022/04/12 00:28:27;;;;;;;15.88;12.10;;;;;;;10.48;47.04;101193.59;5207536;28;20417;-44
2022/04/12 00:31:00;;;;;;;17.33;12.30;;;;;;;10.44;47.15;101182.47;5191723;28;20763;-42
2022/04/12 00:33:33;;;;;;;16.05;12.30;;;;;;;10.44;47.12;101182.47;5193395;28;20504;-42
2022/04/12 00:36:06;;;;;;;18.20;12.60;;;;;;;10.42;47.17;101188.88;5198667;28;20487;-42
2022/04/12 00:38:40;;;;;;;15.05;12.18;;;;;;;10.36;47.28;101174.41;5193767;28;20729;-43
2022/04/12 00:41:12;;;;;;;20.83;12.43;;;;;;;10.39;47.43;101189.97;5196207;28;20417;-40
2022/04/12 00:43:45;;;;;;;16.10;11.40;;;;;;;9.74;47.40;101084.13;5190825;28;20487;-41
2022/04/12 00:46:17;;;;;;;16.33;12.77;;;;;;;10.36;47.23;101190.25;5191878;28;20442;-43
2022/04/12 00:48:51;;;;;;;17.77;12.35;;;;;;;10.36;47.44;101190.25;5196460;28;20406;-44
2022/04/12 00:51:24;;;;;;;18.87;12.33;;;;;;;10.35;47.60;101185.97;5192131;28;20510;-41
2022/04/12 00:53:57;;;;;;;15.45;11.60;;;;;;;10.29;47.51;101168.03;5192624;28;20836;-41
2022/04/12 00:56:30;;;;;;;17.02;12.55;;;;;;;10.25;47.61;101163.97;5192957;28;20423;-42
2022/04/12 00:59:03;;;;;;;14.05;11.45;;;;;;;10.36;47.77;101177.88;5195615;28;20421;-41
2022/04/12 01:01:36;;;;;;;15.02;11.57;;;;;;;10.37;47.88;101176.94;5188042;28;20473;-42
2022/04/12 01:04:10;;;;;;;15.88;10.88;;;;;;;10.40;47.73;101178.44;5193633;28;20446;-41
2022/04/12 01:06:42;;;;;;;17.15;11.93;;;;;;;10.43;47.85;101178.16;5194374;28;20405;-41
2022/04/12 01:09:15;;;;;;;16.98;11.00;;;;;;;10.41;47.68;101182.75;5192982;28;20409;-41
2022/04/12 01:11:48;;;;;;;18.33;10.88;;;;;;;10.46;47.83;101179.69;5190150;28;20415;-47
2022/04/12 01:14:22;;;;;;;14.95;11.30;;;;;;;10.41;47.77;101161.63;5190603;28;20410;-41
2022/04/12 01:16:54;;;;;;;13.77;10.45;;;;;;;10.50;47.69;101187.19;5191448;28;20421;-44
2022/04/12 01:19:28;;;;;;;16.13;10.20;;;;;;;9.97;47.79;101100.50;5198316;28;20503;-42
2022/04/12 01:22:05;;;;;;;17.90;10.03;;;;;;;10.54;47.84;101172.72;5190501;28;20498;-41
2022/04/12 01:24:39;;;;;;;15.27;9.27;;;;;;;10.57;47.80;101176.91;5187416;28;20511;-41
2022/04/12 01:27:11;;;;;;;13.90;9.63;;;;;;;10.45;47.75;101147.16;5193745;28;20420;-41
2022/04/12 01:29:44;;;;;;;13.63;9.73;;;;;;;10.63;47.60;101176.34;5196048;28;20438;-42
2022/04/12 01:32:16;;;;;;;13.48;9.18;;;;;;;10.64;47.71;101172.72;5192734;28;20438;-43
2022/04/12 01:34:49;;;;;;;12.45;9.35;;;;;;;10.62;47.57;101164.09;5194640;28;20408;-42
2022/04/12 01:37:21;;;;;;;15.40;10.02;;;;;;;10.70;47.50;101176.59;5194892;28;20462;-44
2022/04/12 01:39:55;;;;;;;12.90;8.57;;;;;;;10.74;47.21;101167.41;5191738;28;20492;-42
2022/04/12 01:42:28;;;;;;;12.43;8.88;;;;;;;10.77;47.58;101183.78;5195676;28;20747;-42
2022/04/12 01:45:00;;;;;;;13.87;9.00;;;;;;;10.78;47.34;101163.53;5186503;28;20536;-42
2022/04/12 01:47:33;;;;;;;13.00;8.63;;;;;;;10.69;47.38;101156.44;5192491;28;20442;-42
2022/04/12 01:50:08;;;;;;;10.95;8.50;;;;;;;10.79;47.22;101167.81;5195667;28;20438;-42
2022/04/12 01:52:40;;;;;;;13.15;9.07;;;;;;;10.79;47.27;101175.75;5194518;28;20763;-42
2022/04/12 01:55:15;;;;;;;12.98;8.68;;;;;;;10.79;47.27;101165.16;5196458;28;20413;-45
2022/04/12 01:57:47;;;;;;;12.38;8.85;;;;;;;10.77;47.07;101167.94;5194853;28;20415;-43
2022/04/12 02:00:20;;;;;;;11.37;8.57;;;;;;;10.77;47.29;101160.00;5189718;28;20433;-43
2022/04/12 02:02:52;;;;;;;12.82;8.30;;;;;;;10.75;47.17;101148.78;5194241;28;20436;-42
2022/04/12 02:05:25;;;;;;;13.52;9.18;;;;;;;10.72;47.21;101145.59;5193714;28;20862;-42
2022/04/12 02:07:57;;;;;;;10.95;8.43;;;;;;;10.68;47.39;101136.28;5193105;28;20512;-44
2022/04/12 02:10:31;;;;;;;13.00;9.00;;;;;;;10.69;47.39;101143.25;5194887;28;20465;-42
2022/04/12 02:13:04;;;;;;;13.80;9.50;;;;;;;10.63;47.46;101139.34;5197164;28;20430;-43
2022/04/12 02:15:36;;;;;;;14.15;8.50;;;;;;;10.64;47.43;101141.00;5199088;28;20413;-42
2022/04/12 02:18:09;;;;;;;13.15;8.65;;;;;;;10.61;47.56;101134.19;5196917;28;20542;-42
2022/04/12 02:20:41;;;;;;;13.82;9.68;;;;;;;10.59;47.42;101132.66;5198929;28;20486;-42
2022/04/12 02:23:14;;;;;;;12.68;8.63;;;;;;;10.55;47.46;101129.50;5189018;28;20810;-48
2022/04/12 02:25:47;;;;;;;12.88;9.35;;;;;;;10.55;47.58;101137.41;5191879;28;20508;-42
2022/04/12 02:28:20;;;;;;;15.00;9.57;;;;;;;10.51;47.50;101130.75;5185816;28;20435;-43
2022/04/12 02:30:52;;;;;;;11.90;9.10;;;;;;;10.07;47.70;101089.94;5197294;28;21074;-42
2022/04/12 02:33:25;;;;;;;14.05;9.20;;;;;;;10.43;47.84;101132.44;5202972;28;20459;-42
2022/04/12 02:35:57;;;;;;;13.75;9.35;;;;;;;10.23;47.73;101107.84;5202113;28;20505;-43
2022/04/12 02:38:30;;;;;;;12.75;9.85;;;;;;;10.38;47.80;101131.06;5193610;28;20439;-43
2022/04/12 02:41:03;;;;;;;16.00;10.13;;;;;;;10.37;47.82;101137.31;5194241;28;20454;-42
2022/04/12 02:43:36;;;;;;;12.10;9.25;;;;;;;10.34;48.02;101128.81;5195811;28;20442;-42
2022/04/12 02:46:09;;;;;;;13.27;9.90;;;;;;;10.30;48.02;101123.00;5197254;28;20438;-42
2022/04/12 02:48:42;;;;;;;15.23;9.83;;;;;;;10.24;48.12;101112.16;5192355;28;20415;-42
2022/04/12 02:51:14;;;;;;;12.25;9.65;;;;;;;10.02;48.03;101082.44;5196602;28;20407;-42
2022/04/12 02:53:47;;;;;;;13.25;9.23;;;;;;;10.25;48.18;101113.81;5195563;28;20518;-42
2022/04/12 02:56:21;;;;;;;11.80;8.93;;;;;;;10.21;48.34;101107.16;5189227;28;20405;-40
2022/04/12 02:58:53;;;;;;;12.95;9.88;;;;;;;10.16;48.43;101097.84;5193651;28;20455;-42
2022/04/12 03:01:26;;;;;;;15.95;9.75;;;;;;;10.13;48.42;101092.03;5199081;28;20417;-42
2022/04/12 03:03:58;;;;;;;14.70;9.75;;;;;;;10.08;48.47;101087.16;5201135;28;20433;-43
2022/04/12 03:06:31;;;;;;;13.90;9.15;;;;;;;10.05;48.50;101097.16;5201938;28;20424;-42
2022/04/12 03:09:04;;;;;;;16.42;8.82;;;;;;;10.03;48.63;101099.94;5198062;28;20426;-42
2022/04/12 03:11:39;;;;;;;13.30;10.35;;;;;;;10.03;48.61;101099.09;5192568;28;20509;-41
2022/04/12 03:14:12;;;;;;;13.23;9.77;;;;;;;10.03;48.65;101105.19;5192866;28;20927;-41
2022/04/12 03:16:44;;;;;;;12.98;8.93;;;;;;;9.92;48.84;101078.97;5195940;28;21036;-42
2022/04/12 03:19:17;;;;;;;12.43;9.80;;;;;;;10.01;48.79;101088.69;5190781;28;20410;-42
2022/04/12 03:21:49;;;;;;;14.10;9.77;;;;;;;9.87;48.87;101081.19;5191874;28;20419;-42
2022/04/12 03:24:22;;;;;;;15.48;9.95;;;;;;;9.97;49.06;101082.00;5191707;28;20475;-42
2022/04/12 03:26:56;;;;;;;11.52;9.25;;;;;;;9.95;49.09;101077.88;5199046;28;20418;-41
2022/04/12 03:29:28;;;;;;;14.95;10.10;;;;;;;9.96;48.96;101083.00;5193738;28;20426;-42
2022/04/12 03:32:01;;;;;;;13.27;10.68;;;;;;;9.93;49.20;101078.00;5194539;28;20498;-41
2022/04/12 03:34:35;;;;;;;15.35;10.40;;;;;;;9.91;49.22;101087.88;5189686;28;21125;-42
2022/04/12 03:37:08;;;;;;;13.90;10.87;;;;;;;9.88;49.26;101075.78;5190846;28;20939;-41
2022/04/12 03:39:42;;;;;;;15.88;9.95;;;;;;;9.89;49.12;101076.63;5196490;28;20827;-42
2022/04/12 03:42:18;;;;;;;14.65;10.13;;;;;;;9.85;49.22;101075.25;5194172;28;20434;-41
2022/04/12 03:44:51;;;;;;;15.57;10.30;;;;;;;9.87;49.34;101075.91;5196243;28;20409;-43
2022/04/12 03:47:23;;;;;;;13.38;10.02;;;;;;;9.84;49.36;101082.31;5193860;28;20748;-41
2022/04/12 03:49:55;;;;;;;14.95;9.52;;;;;;;9.88;49.34;101090.81;5195059;28;20418;-42
2022/04/12 03:52:28;;;;;;;15.00;10.77;;;;;;;9.89;49.44;101084.53;5198260;28;20500;-42
2022/04/12 03:55:00;;;;;;;13.00;10.57;;;;;;;9.87;49.50;101097.03;5194614;28;20425;-45
2022/04/12 03:57:34;;;;;;;12.93;10.10;;;;;;;9.90;49.44;101075.63;5187833;28;20438;-42
2022/04/12 04:00:09;;;;;;;16.88;9.77;;;;;;;9.89;49.51;101066.06;5197313;28;20426;-42
2022/04/12 04:02:41;;;;;;;13.52;10.68;;;;;;;9.92;49.63;101071.06;5200466;28;20441;-42
2022/04/12 04:05:14;;;;;;;14.77;9.73;;;;;;;9.88;49.52;101045.94;5191161;28;20434;-41
2022/04/12 04:07:46;;;;;;;13.23;9.10;;;;;;;9.89;49.73;101061.63;5200733;28;20414;-42
2022/04/12 04:10:21;;;;;;;13.17;9.93;;;;;;;9.86;49.88;101053.16;5193989;28;26311;-43
2022/04/12 04:12:55;;;;;;;12.13;9.10;;;;;;;9.90;49.72;101051.91;5191575;28;20909;-42
2022/04/12 04:15:27;;;;;;;12.55;9.85;;;;;;;9.88;49.83;101048.59;5192695;28;20830;-44
2022/04/12 04:18:00;;;;;;;13.73;9.38;;;;;;;9.91;49.89;101054.41;5198438;28;20501;-42
2022/04/12 04:20:33;;;;;;;15.82;9.63;;;;;;;9.88;50.08;101059.97;5200803;28;20430;-47
2022/04/12 04:23:06;;;;;;;12.88;9.10;;;;;;;9.98;49.90;101070.50;5191237;28;20808;-42
2022/04/12 04:25:39;;;;;;;13.95;9.02;;;;;;;10.01;49.82;101067.59;5189345;28;20415;-43
2022/04/12 04:28:12;;;;;;;14.05;9.20;;;;;;;10.04;49.73;101063.84;5193253;28;20764;-42
2022/04/12 04:30:45;;;;;;;13.23;8.63;;;;;;;10.09;49.77;101083.53;5189997;28;20514;-43
2022/04/12 04:33:18;;;;;;;12.50;9.23;;;;;;;10.10;49.59;101079.94;5194200;28;20934;-43
2022/04/12 04:35:51;;;;;;;12.98;9.18;;;;;;;9.55;49.62;101011.09;5184877;28;20425;-42
2022/04/12 04:38:24;;;;;;;11.02;8.80;;;;;;;10.18;49.63;101086.31;5193070;28;20413;-42
2022/04/12 04:40:56;;;;;;;12.90;10.18;;;;;;;10.18;49.58;101081.88;5190271;28;21199;-42
2022/04/12 04:43:30;;;;;;;13.67;8.90;;;;;;;10.15;49.42;101077.69;5188038;28;20443;-43
2022/04/12 04:46:02;;;;;;;14.00;9.02;;;;;;;10.17;49.50;101090.78;5189747;28;20419;-42
2022/04/12 04:48:35;;;;;;;11.57;8.23;;;;;;;10.20;49.45;101094.94;5188678;28;20431;-42
2022/04/12 04:51:07;;;;;;;16.48;9.43;;;;;;;10.18;49.39;101088.94;5189488;28;20764;-42
2022/04/12 04:53:40;;;;;;;12.18;7.95;;;;;;;10.18;49.53;101078.41;5209028;28;20911;-41
2022/04/12 04:56:13;;;;;;;12.97;8.53;;;;;;;10.14;49.43;101057.56;5203591;28;20802;-42
2022/04/12 04:58:47;;;;;;;12.38;9.05;;;;;;;10.11;49.39;101044.66;5193774;28;20729;-43
2022/04/12 05:01:20;;;;;;;12.73;8.80;;;;;;;10.15;49.41;101055.75;5194651;28;20438;-42
2022/04/12 05:03:52;;;;;;;15.73;9.15;;;;;;;10.16;49.51;101050.34;5186789;28;20415;-42
2022/04/12 05:06:25;;;;;;;14.13;9.60;;;;;;;10.17;49.44;101048.53;5203308;28;20492;-41
2022/04/12 05:08:57;;;;;;;14.85;9.88;;;;;;;10.18;49.39;101049.38;5209709;28;20528;-41
2022/04/12 05:11:31;;;;;;;13.20;9.77;;;;;;;10.18;49.49;101050.19;5196322;28;20836;-46
2022/04/12 05:14:05;;;;;;;12.57;9.25;;;;;;;10.20;49.31;101047.44;5187758;28;20415;-41
2022/04/12 05:16:37;;;;;;;13.73;10.77;;;;;;;10.21;49.41;101051.72;5203254;28;20502;-42
2022/04/12 05:19:10;;;;;;;15.23;10.57;;;;;;;10.21;49.39;101043.81;5189727;28;22157;-42
2022/04/12 05:21:42;;;;;;;18.38;12.02;;;;;;;10.21;49.40;101033.25;5193611;28;20411;-41
2022/04/12 05:24:14;;;;;;;16.65;11.38;;;;;;;10.19;49.35;101040.47;5214633;28;20446;-41
2022/04/12 05:26:47;;;;;;;18.27;12.15;;;;;;;10.17;49.58;101043.25;5191167;28;20450;-41
2022/04/12 05:29:21;;;;;;;15.02;11.38;;;;;;;10.18;49.68;101054.66;5203287;28;20427;-41
2022/04/12 05:31:53;;;;;;;18.38;11.65;;;;;;;10.17;49.61;101061.72;5190994;28;20413;-41
2022/04/12 05:34:26;;;;;;;16.10;11.65;;;;;;;10.22;49.57;101074.50;5194296;28;20470;-41
2022/04/12 05:36:58;;;;;;;17.17;11.63;;;;;;;10.10;49.50;101050.91;5198642;28;20417;-42
2022/04/12 05:39:31;;;;;;;17.63;10.98;;;;;;;10.11;49.41;101060.50;5206320;28;20413;-41
2022/04/12 05:42:05;;;;;;;15.73;11.35;;;;;;;10.31;49.40;101086.88;5212276;28;20440;-41
2022/04/12 05:44:38;;;;;;;17.17;11.30;;;;;;;10.32;49.41;101080.63;5191954;28;20506;-41
2022/04/12 05:47:13;;;;;;;17.75;10.52;;;;;;;10.34;49.38;101071.59;5198067;28;20444;-42
2022/04/12 05:49:46;;;;;;;14.45;10.43;;;;;;;10.49;49.21;101085.16;5194291;28;20418;-41
2022/04/12 05:52:18;;;;;;;15.20;9.73;;;;;;;10.38;49.10;101077.44;5195672;28;21016;-43
2022/04/12 05:54:51;;;;;;;16.40;9.85;;;;;;;10.58;49.24;101079.03;5187480;28;20423;-45
2022/04/12 05:57:23;;;;;;;18.38;10.45;;;;;;;10.66;48.93;101074.84;5192478;28;20493;-41
2022/04/12 05:59:57;;;;;;;14.55;9.70;;;;;;;10.69;49.10;101080.66;5177679;28;20446;-42
2022/04/12 06:02:29;;;;;;;14.63;9.30;;;;;;;10.75;48.89;101095.13;5191747;28;20443;-42
2022/04/12 06:05:02;;;;;;;17.92;9.30;;;;;;;10.70;48.99;101065.66;5206886;28;20997;-42
2022/04/12 06:07:36;;;;;;;16.63;9.13;;;;;;;10.95;48.74;101094.03;5202298;28;20510;-41
2022/04/12 06:10:11;;;;;;;13.47;8.47;;;;;;;11.05;48.51;101086.91;5210305;28;20576;-44
2022/04/12 06:12:43;;;;;;;15.32;9.07;;;;;;;11.13;47.93;101082.69;5203186;28;20500;-41
2022/04/12 06:15:17;;;;;;;16.58;8.57;;;;;;;11.44;48.23;101081.41;5204498;28;20506;-40
2022/04/12 06:17:50;;;;;;;17.55;8.95;;;;;;;12.55;47.25;101083.66;5203274;28;20879;-41
2022/04/12 06:20:22;;;;;;;12.27;8.20;;;;;;;14.07;45.73;101079.13;5198610;28;20539;-41
2022/04/12 06:22:55;;;;;;;13.23;7.40;;;;;;;15.32;44.43;101090.09;5198849;28;20442;-41
2022/04/12 06:25:28;;;;;;;14.88;7.72;;;;;;;16.46;43.17;101094.59;5194662;28;20872;-42
2022/04/12 06:28:00;;;;;;;14.70;7.30;;;;;;;17.32;42.32;101073.59;5195294;28;20507;-42
2022/04/12 06:30:34;;;;;;;10.82;7.03;;;;;;;18.06;41.49;101069.81;5198397;28;20477;-43
2022/04/12 06:33:09;;;;;;;15.90;6.63;;;;;;;18.85;40.83;101064.16;5195786;28;20426;-46
2022/04/12 06:35:42;;;;;;;10.82;6.88;;;;;;;19.78;39.59;101057.22;5202375;28;20425;-43
2022/04/12 06:38:15;;;;;;;16.38;6.43;;;;;;;20.36;38.95;101066.50;5198998;28;20415;-43
2022/04/12 06:40:49;;;;;;;9.93;5.65;;;;;;;20.76;38.47;101066.44;5205762;28;20477;-47
2022/04/12 06:43:21;;;;;;;16.15;7.30;;;;;;;21.13;37.82;101062.16;5192655;28;20431;-41
2022/04/12 06:45:55;;;;;;;14.63;7.35;;;;;;;21.38;37.49;101054.22;5190378;28;20536;-48
2022/04/12 06:48:28;;;;;;;12.50;6.10;;;;;;;21.63;37.09;101047.00;5186453;28;20566;-45
2022/04/12 06:51:01;;;;;;;8.70;5.82;;;;;;;21.96;36.67;101056.69;5216213;28;20785;-46
2022/04/12 06:53:34;;;;;;;10.23;6.50;;;;;;;22.53;36.14;101052.03;5188242;28;20437;-42
2022/04/12 06:56:07;;;;;;;11.23;6.28;;;;;;;22.89;35.55;101058.47;5204333;28;20436;-42
2022/04/12 06:58:39;;;;;;;11.03;6.07;;;;;;;22.91;35.42;101053.66;5196945;28;20454;-47
2022/04/12 07:01:13;;;;;;;14.10;6.30;;;;;;;22.91;35.52;101058.22;5198399;28;20490;-44
2022/04/12 07:03:46;;;;;;;10.98;6.18;;;;;;;22.61;35.54;101056.31;5206088;28;20429;-44
2022/04/12 07:06:18;;;;;;;9.65;5.85;;;;;;;22.23;35.70;101045.72;5217413;28;20408;-46
2022/04/12 07:08:51;;;;;;;10.53;6.23;;;;;;;21.72;36.09;101054.81;5204264;28;20421;-43
2022/04/12 07:11:23;;;;;;;11.63;6.47;;;;;;;21.35;35.79;101049.22;5201058;28;20493;-45
2022/04/12 07:13:56;;;;;;;9.90;5.65;;;;;;;21.07;36.09;101053.09;5199386;28;20500;-45
2022/04/12 07:16:29;;;;;;;11.02;6.30;;;;;;;20.91;36.23;101046.34;5190481;28;20537;-43
2022/04/12 07:19:02;;;;;;;13.63;6.63;;;;;;;21.02;35.95;101050.22;5188399;28;20558;-43
2022/04/12 07:21:35;;;;;;;10.70;5.65;;;;;;;21.13;35.38;101022.69;5202336;28;20514;-43
2022/04/12 07:24:08;;;;;;;9.73;6.03;;;;;;;21.78;34.92;101064.69;5198558;28;20464;-44
2022/04/12 07:26:42;;;;;;;9.98;6.13;;;;;;;22.08;34.53;101064.84;5187503;28;21386;-42
2022/04/12 07:29:15;;;;;;;8.50;5.70;;;;;;;22.00;34.59;101057.88;5201520;28;20520;-43
2022/04/12 07:31:49;;;;;;;9.13;6.07;;;;;;;22.15;34.41;101054.06;5206076;28;20437;-45
2022/04/12 07:34:21;;;;;;;11.00;7.10;;;;;;;22.19;34.37;101072.22;5188929;28;20500;-47
2022/04/12 07:36:54;;;;;;;13.05;6.78;;;;;;;22.06;34.14;101050.81;5190591;28;20414;-44
2022/04/12 07:39:27;;;;;;;11.30;6.57;;;;;;;21.90;34.02;101046.81;5199020;28;20431;-46
2022/04/12 07:41:59;;;;;;;11.00;5.72;;;;;;;21.91;34.09;101045.75;5196284;28;20414;-44
2022/04/12 07:44:33;;;;;;;11.52;5.93;;;;;;;21.88;33.70;101035.44;5205106;28;20508;-44
2022/04/12 07:47:08;;;;;;;10.63;5.72;;;;;;;21.93;33.83;101051.75;5185389;28;20418;-46
2022/04/12 07:49:43;;;;;;;10.85;5.90;;;;;;;22.07;33.76;101047.06;5198636;28;20441;-44
2022/04/12 07:52:16;;;;;;;9.38;5.88;;;;;;;21.92;33.78;101039.31;5205704;28;20410;-45
2022/04/12 07:54:49;;;;;;;9.82;5.53;;;;;;;21.47;33.99;101031.41;5193049;28;20462;-47
2022/04/12 07:57:21;;;;;;;10.73;5.82;;;;;;;21.44;34.09;101023.78;5191318;28;20417;-47
2022/04/12 07:59:54;;;;;;;15.57;6.72;;;;;;;21.71;33.95;101034.34;5191823;28;20436;-43
2022/04/12 08:02:28;;;;;;;10.88;6.70;;;;;;;21.91;33.75;101026.94;5189908;28;20481;-43
2022/04/12 08:05:00;;;;;;;10.50;6.05;;;;;;;21.96;33.62;101034.38;5195647;28;20437;-46
2022/04/12 08:07:33;;;;;;;11.93;6.13;;;;;;;22.19;33.51;101036.44;5185275;28;20455;-44
2022/04/12 08:10:06;;;;;;;9.07;5.90;;;;;;;22.49;33.35;101033.88;5191105;28;20436;-46
2022/04/12 08:12:43;;;;;;;9.93;5.75;;;;;;;22.66;33.29;101013.34;5188227;28;20982;-45
2022/04/12 08:15:17;;;;;;;15.63;6.63;;;;;;;22.84;32.98;101009.81;5191104;28;20411;-44
2022/04/12 08:17:52;;;;;;;14.05;6.88;;;;;;;22.86;33.02;101007.75;5185904;28;20413;-48
2022/04/12 08:20:24;;;;;;;10.40;6.05;;;;;;;22.88;33.03;101021.78;5187865;28;20411;-44
2022/04/12 08:22:57;;;;;;;10.63;6.00;;;;;;;22.97;33.01;101031.22;5188373;28;20510;-43
2022/04/12 08:25:29;;;;;;;11.93;6.82;;;;;;;22.75;33.41;101013.88;5185587;28;20436;-44
2022/04/12 08:28:02;;;;;;;14.27;6.45;;;;;;;22.97;33.32;101028.53;5189917;28;20617;-43
2022/04/12 08:30:34;;;;;;;9.40;6.78;;;;;;;23.23;33.06;101034.63;5174528;28;20430;-47
2022/04/12 08:33:09;;;;;;;11.13;6.25;;;;;;;22.78;33.30;101029.59;5185707;28;20419;-46
2022/04/12 08:35:41;;;;;;;11.35;6.00;;;;;;;22.51;33.73;101031.75;5184537;28;20497;-45
2022/04/12 08:38:14;;;;;;;10.82;6.10;;;;;;;22.41;33.70;101029.59;5187928;28;20527;-47
2022/04/12 08:40:46;;;;;;;12.23;5.95;;;;;;;22.62;33.63;101043.66;5185624;28;20506;-51
2022/04/12 08:43:22;;;;;;;14.57;5.60;;;;;;;22.86;33.45;101055.41;5189100;28;20419;-48
2022/04/12 08:45:56;;;;;;;9.73;5.82;;;;;;;22.72;33.63;101043.94;5185534;28;20475;-51
2022/04/12 08:48:31;;;;;;;9.52;5.45;;;;;;;22.60;33.90;101040.34;5182017;28;20446;-47
2022/04/12 08:51:04;;;;;;;13.18;5.60;;;;;;;22.55;33.71;101065.28;5183775;28;20422;-47
2022/04/12 08:53:37;;;;;;;11.32;5.72;;;;;;;22.42;33.91;101044.72;5183221;28;20423;-48
2022/04/12 08:56:10;;;;;;;10.23;5.72;;;;;;;22.33;34.02;101035.28;5181668;28;20784;-49
2022/04/12 08:58:42;;;;;;;10.93;5.47;;;;;;;22.08;34.21;101022.66;5185597;28;20483;-47
2022/04/12 09:01:15;;;;;;;12.63;5.75;;;;;;;21.72;34.46;101023.38;5183972;28;20464;-50
2022/04/12 09:03:49;;;;;;;10.70;5.97;;;;;;;21.51;34.60;101011.13;5184644;28;20403;-48
2022/04/12 09:06:22;;;;;;;11.75;6.15;;;;;;;21.54;34.50;101013.38;5187267;28;20829;-49
2022/04/12 09:08:54;;;;;;;13.68;6.10;;;;;;;21.51;34.42;101016.50;5187085;28;20432;-50
2022/04/12 09:11:29;;;;;;;13.40;6.70;;;;;;;21.41;34.63;101016.97;5191487;28;20413;-47
2022/04/12 09:14:02;;;;;;;11.52;6.05;;;;;;;21.32;34.48;101004.00;5185045;28;20432;-49
2022/04/12 09:16:35;;;;;;;11.85;6.38;;;;;;;21.14;34.62;100997.47;5183973;28;20441;-45
2022/04/12 09:19:12;;;;;;;12.57;6.35;;;;;;;21.03;34.56;100998.19;5183590;28;20466;-48
2022/04/12 09:21:48;;;;;;;10.50;6.13;;;;;;;21.09;34.68;101002.69;5186036;28;20488;-47
2022/04/12 09:24:22;;;;;;;12.10;6.60;;;;;;;21.01;34.75;101007.47;5181630;28;20412;-43
2022/04/12 09:26:58;;;;;;;10.82;6.47;;;;;;;20.80;34.82;101004.06;5183868;28;20862;-44
2022/04/12 09:29:31;;;;;;;12.20;6.57;;;;;;;20.73;34.88;101014.00;5180847;28;20544;-46
2022/04/12 09:32:04;;;;;;;14.35;6.25;;;;;;;20.66;34.80;101007.84;5183070;28;20439;-46
2022/04/12 09:34:37;;;;;;;11.52;6.88;;;;;;;20.70;34.85;100996.47;5181440;28;20454;-48
2022/04/12 09:37:25;;;;;;;14.30;6.93;;;;;;;20.57;34.86;100993.84;5183780;28;20433;-48
2022/04/12 09:40:11;;;;;;;17.73;7.45;;;;;;;20.30;35.10;100992.25;5178800;28;21092;-50
2022/04/12 09:42:49;;;;;;;13.52;7.35;;;;;;;20.06;35.28;100989.19;5183295;28;20423;-45
2022/04/12 09:45:23;;;;;;;9.02;6.82;;;;;;;20.12;35.51;101001.75;5182809;28;20763;-46
2022/04/12 09:47:58;;;;;;;10.75;6.88;;;;;;;20.18;35.25;101000.91;5184170;28;20411;-45
2022/04/12 09:50:34;;;;;;;14.52;7.60;;;;;;;20.24;35.35;101000.06;5181845;28;20516;-47
2022/04/12 09:53:07;;;;;;;11.23;6.78;;;;;;;20.21;35.41;101000.50;5183325;28;20459;-50
2022/04/12 09:55:42;;;;;;;10.43;7.03;;;;;;;20.30;35.27;101011.00;5181857;28;20433;-47
2022/04/12 09:58:21;;;;;;;13.15;7.40;;;;;;;20.27;35.42;101005.03;5158636;28;20419;-49
2022/04/12 10:00:53;;;;;;;13.15;7.78;;;;;;;20.29;35.35;100995.97;5176112;28;20991;-47
2022/04/12 10:03:28;;;;;;;13.40;7.03;;;;;;;20.40;35.42;100997.97;5182669;28;20472;-46
2022/04/12 10:06:03;;;;;;;12.18;7.63;;;;;;;20.42;35.24;100990.56;5183932;28;20522;-43
2022/04/12 10:08:37;;;;;;;12.07;7.55;;;;;;;20.41;35.23;100972.81;5182527;28;20962;-49
2022/04/12 10:11:12;;;;;;;16.10;7.30;;;;;;;20.57;35.29;100993.84;5188904;28;21003;-47
2022/04/12 10:13:45;;;;;;;13.60;7.78;;;;;;;20.71;35.10;100994.59;5186771;28;20498;-48
2022/04/12 10:16:19;;;;;;;11.00;7.70;;;;;;;20.71;35.08;100983.88;5189928;28;20791;-46
2022/04/12 10:18:54;;;;;;;12.07;6.38;;;;;;;20.71;35.04;100968.59;5180858;28;20538;-49
2022/04/12 10:21:30;;;;;;;11.80;6.90;;;;;;;20.69;35.16;100943.84;5191436;28;20421;-46
2022/04/12 10:24:05;;;;;;;13.38;7.18;;;;;;;20.78;35.09;100951.63;5186203;28;20585;-51
2022/04/12 10:26:37;;;;;;;12.10;7.25;;;;;;;20.70;35.28;100941.97;5186862;28;20495;-48
2022/04/12 10:29:09;;;;;;;11.32;7.47;;;;;;;20.57;35.22;100917.88;5186920;28;20504;-53
2022/04/12 10:31:56;;;;;;;13.47;7.13;;;;;;;20.55;35.50;100941.41;5186831;28;20562;-47
2022/04/12 10:34:29;;;;;;;11.75;7.47;;;;;;;20.48;35.60;100942.25;5181659;28;20490;-49
2022/04/12 10:37:13;;;;;;;13.18;7.60;;;;;;;20.53;35.76;100946.16;5185679;28;20480;-49
2022/04/12 10:39:49;;;;;;;12.40;7.23;;;;;;;20.57;35.59;100926.75;5179598;28;20580;-50
2022/04/12 10:42:26;;;;;;;16.77;7.35;;;;;;;20.66;35.58;100927.34;5183066;28;20556;-49
2022/04/12 10:45:02;;;;;;;17.45;7.10;;;;;;;20.83;35.36;100933.84;5167402;28;20597;-45
2022/04/12 10:47:36;;;;;;;13.30;7.15;;;;;;;21.00;35.18;100920.75;5138079;28;20600;-46
2022/04/12 10:50:12;;;;;;;11.32;6.75;;;;;;;21.13;35.44;100917.97;5171420;28;20876;-51
2022/04/12 10:52:48;;;;;;;13.00;7.18;;;;;;;21.31;35.21;100917.22;5191399;28;20463;-48
2022/04/12 10:55:23;;;;;;;13.80;7.43;;;;;;;21.30;35.34;100917.41;5187756;28;20782;-55
2022/04/12 10:58:13;;;;;;;13.73;7.40;;;;;;;21.18;35.44;100915.47;5185202;28;20456;-45
2022/04/12 11:00:47;;;;;;;11.65;7.47;;;;;;;21.17;35.45;100921.03;5186680;28;20421;-45
2022/04/12 11:03:20;;;;;;;14.23;6.97;;;;;;;21.11;35.47;100925.41;5191256;28;20647;-46
2022/04/12 11:05:56;;;;;;;12.48;6.70;;;;;;;21.11;35.50;100925.41;5182270;28;20410;-49
2022/04/12 11:08:51;;;;;;;11.35;6.68;;;;;;;21.21;35.50;100921.41;5184550;28;20864;-48
2022/04/12 11:11:29;;;;;;;12.30;6.47;;;;;;;21.09;35.69;100921.28;5178060;28;20916;-47
2022/04/12 11:14:25;;;;;;;13.35;6.72;;;;;;;21.01;35.56;100922.38;5184661;28;20917;-54
2022/04/12 11:17:02;;;;;;;13.15;7.03;;;;;;;20.90;35.76;100915.00;5180355;28;20700;-46
2022/04/12 11:19:45;;;;;;;15.77;6.75;;;;;;;20.81;35.98;100908.25;5184435;28;20636;-45
2022/04/12 11:22:20;;;;;;;16.38;6.90;;;;;;;20.78;35.88;100903.31;5181812;28;20419;-48
2022/04/12 11:25:22;;;;;;;16.90;7.20;;;;;;;20.66;35.85;100911.25;5175198;28;21008;-49
2022/04/12 11:27:59;;;;;;;14.45;7.57;;;;;;;20.52;36.19;100915.84;5153378;28;20472;-44
2022/04/12 11:30:32;;;;;;;13.33;7.63;;;;;;;20.45;36.34;100936.47;5183815;28;20494;-49
2022/04/12 11:33:04;;;;;;;10.95;7.40;;;;;;;20.38;36.35;100941.06;5186089;28;20468;-46
2022/04/12 11:35:39;;;;;;;10.60;6.45;;;;;;;20.29;36.48;100927.06;5185502;28;20548;-45
2022/04/12 11:38:12;;;;;;;12.63;7.45;;;;;;;20.21;36.79;100922.72;5182308;28;20896;-44
2022/04/12 11:40:45;;;;;;;12.40;7.10;;;;;;;20.13;36.44;100898.84;5187523;28;20537;-45
2022/04/12 11:43:27;;;;;;;13.40;7.13;;;;;;;20.29;36.50;100908.28;5191723;28;20884;-48
2022/04/12 11:46:01;;;;;;;11.48;7.03;;;;;;;20.33;36.47;100911.34;5193042;28;20475;-44
2022/04/12 11:48:34;;;;;;;10.52;6.75;;;;;;;20.30;36.74;100901.88;5195635;28;20662;-45